AGJ920 SCEL-SCVH
Flight info
| Callsign | AGJ920 |
|---|---|
| Flight time | 0h 13m |
| Altitude | 9000 |
| Route | UKEMU PARKE PADOP PUMAR |
| Aircraft | E110/M-SDE3FG/L |
Departure
| Time | 2026-04-23 18:48 |
|---|---|
| Airport | Comodoro Arturo Merino Benítez International Airport (SCEL) |
Arrival
| Time | 2026-04-23 19:01 |
|---|---|
| Airport | La Victoria de Chacabuco Airport (SCVH) |
| Time | Latitude | Longitude | Altitude | Speed | Heading |
|---|---|---|---|---|---|
| 2026-04-23 18:21 | -33.40624 | -70.79519 | 1560 ft | 0 kts | 88° |
| 2026-04-23 18:32 | -33.40624 | -70.79527 | 1560 ft | 2 kts | 88° |
| 2026-04-23 18:33 | -33.40625 | -70.79546 | 1560 ft | 2 kts | 88° |
| 2026-04-23 18:33 | -33.40634 | -70.79560 | 1560 ft | 2 kts | 356° |
| 2026-04-23 18:33 | -33.40635 | -70.79560 | 1560 ft | 0 kts | 346° |
| 2026-04-23 18:35 | -33.40618 | -70.79581 | 1560 ft | 6 kts | 291° |
| 2026-04-23 18:36 | -33.40596 | -70.79647 | 1561 ft | 10 kts | 291° |
| 2026-04-23 18:36 | -33.40590 | -70.79667 | 1561 ft | 5 kts | 291° |
| 2026-04-23 18:36 | -33.40582 | -70.79690 | 1561 ft | 4 kts | 291° |
| 2026-04-23 18:36 | -33.40543 | -70.79707 | 1561 ft | 9 kts | 358° |
| 2026-04-23 18:37 | -33.40496 | -70.79766 | 1561 ft | 12 kts | 278° |
| 2026-04-23 18:37 | -33.40488 | -70.79866 | 1561 ft | 12 kts | 268° |
| 2026-04-23 18:37 | -33.40488 | -70.79960 | 1562 ft | 11 kts | 298° |
| 2026-04-23 18:37 | -33.40404 | -70.79981 | 1563 ft | 15 kts | 355° |
| 2026-04-23 18:38 | -33.40282 | -70.79991 | 1563 ft | 19 kts | 356° |
| 2026-04-23 18:38 | -33.40165 | -70.80002 | 1563 ft | 18 kts | 355° |
| 2026-04-23 18:38 | -33.40052 | -70.80016 | 1563 ft | 15 kts | 353° |
| 2026-04-23 18:38 | -33.39931 | -70.80023 | 1562 ft | 20 kts | 359° |
| 2026-04-23 18:39 | -33.39776 | -70.80031 | 1562 ft | 24 kts | 356° |
| 2026-04-23 18:39 | -33.39597 | -70.80042 | 1562 ft | 24 kts | 356° |
| 2026-04-23 18:39 | -33.39479 | -70.80046 | 1562 ft | 16 kts | 359° |
| 2026-04-23 18:39 | -33.39384 | -70.80053 | 1562 ft | 13 kts | 358° |
| 2026-04-23 18:40 | -33.39278 | -70.80059 | 1562 ft | 18 kts | 357° |
| 2026-04-23 18:40 | -33.39141 | -70.80070 | 1563 ft | 22 kts | 354° |
| 2026-04-23 18:40 | -33.38982 | -70.80074 | 1563 ft | 23 kts | 357° |
| 2026-04-23 18:40 | -33.38853 | -70.80083 | 1563 ft | 20 kts | 358° |
| 2026-04-23 18:41 | -33.38701 | -70.80090 | 1563 ft | 23 kts | 357° |
| 2026-04-23 18:41 | -33.38531 | -70.80100 | 1563 ft | 26 kts | 357° |
| 2026-04-23 18:41 | -33.38356 | -70.80110 | 1562 ft | 26 kts | 355° |
| 2026-04-23 18:41 | -33.38194 | -70.80118 | 1562 ft | 22 kts | 353° |
| 2026-04-23 18:42 | -33.38028 | -70.80125 | 1562 ft | 24 kts | 358° |
| 2026-04-23 18:42 | -33.37861 | -70.80135 | 1562 ft | 19 kts | 357° |
| 2026-04-23 18:42 | -33.37746 | -70.80142 | 1562 ft | 18 kts | 355° |
| 2026-04-23 18:42 | -33.37704 | -70.80147 | 1563 ft | 0 kts | 354° |
| 2026-04-23 18:43 | -33.37703 | -70.80147 | 1563 ft | 1 kts | 354° |
| 2026-04-23 18:43 | -33.37668 | -70.80148 | 1563 ft | 10 kts | 0° |
| 2026-04-23 18:43 | -33.37561 | -70.80151 | 1563 ft | 20 kts | 358° |
| 2026-04-23 18:43 | -33.37406 | -70.80159 | 1563 ft | 19 kts | 357° |
| 2026-04-23 18:44 | -33.37315 | -70.80161 | 1563 ft | 11 kts | 357° |
| 2026-04-23 18:44 | -33.37218 | -70.80166 | 1563 ft | 14 kts | 356° |
| 2026-04-23 18:44 | -33.37119 | -70.80187 | 1563 ft | 9 kts | 271° |
| 2026-04-23 18:44 | -33.37115 | -70.80215 | 1564 ft | 4 kts | 295° |
| 2026-04-23 18:45 | -33.37105 | -70.80241 | 1565 ft | 0 kts | 285° |
| 2026-04-23 18:46 | -33.37104 | -70.80245 | 1565 ft | 2 kts | 282° |
| 2026-04-23 18:47 | -33.37105 | -70.80293 | 1568 ft | 7 kts | 260° |
| 2026-04-23 18:47 | -33.37133 | -70.80347 | 1570 ft | 9 kts | 223° |
| 2026-04-23 18:47 | -33.37206 | -70.80371 | 1569 ft | 14 kts | 176° |
| 2026-04-23 18:47 | -33.37484 | -70.80356 | 1570 ft | 75 kts | 178° |
| 2026-04-23 18:48 | -33.38185 | -70.80337 | 1667 ft | 115 kts | 179° |
| 2026-04-23 18:48 | -33.39001 | -70.80274 | 1982 ft | 125 kts | 181° |
| 2026-04-23 18:48 | -33.39891 | -70.80193 | 2320 ft | 133 kts | 177° |
| 2026-04-23 18:48 | -33.40890 | -70.80128 | 2613 ft | 154 kts | 179° |
| 2026-04-23 18:49 | -33.42027 | -70.80079 | 2845 ft | 171 kts | 180° |
| 2026-04-23 18:49 | -33.43215 | -70.79872 | 3089 ft | 179 kts | 157° |
| 2026-04-23 18:49 | -33.44319 | -70.79104 | 3319 ft | 187 kts | 152° |
| 2026-04-23 18:49 | -33.45542 | -70.78540 | 3555 ft | 190 kts | 169° |
| 2026-04-23 18:50 | -33.46409 | -70.78379 | 3720 ft | 191 kts | 174° |
| 2026-04-23 18:50 | -33.48187 | -70.78162 | 4029 ft | 195 kts | 173° |
| 2026-04-23 18:50 | -33.49469 | -70.77647 | 4267 ft | 196 kts | 149° |
| 2026-04-23 18:50 | -33.50479 | -70.76566 | 4503 ft | 196 kts | 127° |
| 2026-04-23 18:51 | -33.51062 | -70.75101 | 4744 ft | 195 kts | 104° |
| 2026-04-23 18:51 | -33.51125 | -70.73487 | 4983 ft | 195 kts | 81° |
| 2026-04-23 18:51 | -33.50666 | -70.71967 | 5218 ft | 195 kts | 58° |
| 2026-04-23 18:51 | -33.49764 | -70.70789 | 5528 ft | 191 kts | 37° |
| 2026-04-23 18:52 | -33.48692 | -70.69867 | 5846 ft | 188 kts | 35° |
| 2026-04-23 18:52 | -33.47647 | -70.68942 | 6160 ft | 186 kts | 36° |
| 2026-04-23 18:52 | -33.46594 | -70.68047 | 6490 ft | 185 kts | 28° |
| 2026-04-23 18:52 | -33.45375 | -70.67605 | 6788 ft | 184 kts | 4° |
| 2026-04-23 18:53 | -33.44118 | -70.67776 | 7093 ft | 182 kts | 341° |
| 2026-04-23 18:53 | -33.42960 | -70.68405 | 7401 ft | 183 kts | 335° |
| 2026-04-23 18:53 | -33.41799 | -70.69044 | 7667 ft | 185 kts | 335° |
| 2026-04-23 18:53 | -33.40606 | -70.69698 | 7910 ft | 192 kts | 335° |
| 2026-04-23 18:54 | -33.39376 | -70.70380 | 8155 ft | 197 kts | 335° |
| 2026-04-23 18:54 | -33.38132 | -70.71073 | 8406 ft | 198 kts | 335° |
| 2026-04-23 18:54 | -33.36881 | -70.71767 | 8653 ft | 199 kts | 335° |
| 2026-04-23 18:54 | -33.35644 | -70.72453 | 8906 ft | 198 kts | 335° |
| 2026-04-23 18:55 | -33.34373 | -70.73084 | 9155 ft | 197 kts | 340° |
| 2026-04-23 18:55 | -33.33091 | -70.73670 | 9409 ft | 197 kts | 338° |
| 2026-04-23 18:55 | -33.31816 | -70.74272 | 9662 ft | 197 kts | 338° |
| 2026-04-23 18:55 | -33.30538 | -70.74865 | 9927 ft | 197 kts | 339° |
| 2026-04-23 18:56 | -33.29663 | -70.75268 | 9998 ft | 202 kts | 339° |
| 2026-04-23 18:56 | -33.27876 | -70.76090 | 9999 ft | 212 kts | 339° |
| 2026-04-23 18:56 | -33.26486 | -70.76733 | 10003 ft | 216 kts | 339° |
| 2026-04-23 18:56 | -33.25074 | -70.77382 | 10005 ft | 218 kts | 339° |
| 2026-04-23 18:57 | -33.23657 | -70.78042 | 10011 ft | 219 kts | 339° |
| 2026-04-23 18:57 | -33.22224 | -70.78699 | 9933 ft | 224 kts | 339° |
| 2026-04-23 18:57 | -33.20780 | -70.79353 | 9651 ft | 218 kts | 340° |
| 2026-04-23 18:57 | -33.19317 | -70.79625 | 9382 ft | 206 kts | 2° |
| 2026-04-23 18:58 | -33.18015 | -70.79384 | 9092 ft | 183 kts | 9° |
| 2026-04-23 18:58 | -33.16760 | -70.79089 | 8592 ft | 185 kts | 9° |
| 2026-04-23 18:58 | -33.15559 | -70.78549 | 8095 ft | 184 kts | 31° |
| 2026-04-23 18:58 | -33.14519 | -70.77633 | 7384 ft | 187 kts | 36° |
| 2026-04-23 18:59 | -33.13482 | -70.76686 | 6671 ft | 187 kts | 36° |
| 2026-04-23 18:59 | -33.12464 | -70.75792 | 5940 ft | 177 kts | 32° |
| 2026-04-23 18:59 | -33.11396 | -70.75127 | 5207 ft | 169 kts | 23° |
| 2026-04-23 18:59 | -33.10421 | -70.74641 | 4999 ft | 134 kts | 22° |
| 2026-04-23 19:00 | -33.09887 | -70.74380 | 4912 ft | 117 kts | 22° |
| 2026-04-23 19:00 | -33.08708 | -70.73775 | 3835 ft | 161 kts | 28° |
| 2026-04-23 19:00 | -33.07686 | -70.73017 | 2613 ft | 178 kts | 37° |
| 2026-04-23 19:00 | -33.06821 | -70.72272 | 2357 ft | 129 kts | 35° |
| 2026-04-23 19:01 | -33.06171 | -70.71757 | 2255 ft | 101 kts | 34° |
| 2026-04-23 19:01 | -33.05603 | -70.71300 | 2177 ft | 98 kts | 34° |
| 2026-04-23 19:01 | -33.05152 | -70.70936 | 2167 ft | 37 kts | 34° |
| 2026-04-23 19:01 | -33.05054 | -70.70858 | 2164 ft | 7 kts | 33° |
| 2026-04-23 19:02 | -33.05023 | -70.70833 | 2165 ft | 8 kts | 34° |
| 2026-04-23 19:02 | -33.05006 | -70.70851 | 2166 ft | 3 kts | 271° |
| 2026-04-23 19:02 | -33.05018 | -70.70858 | 2165 ft | 0 kts | 110° |
| 2026-04-23 19:02 | -33.05018 | -70.70857 | 2163 ft | 0 kts | 110° |